sensor_id;sensor_type;location;lat;lon;timestamp;P1;P2;P0
70243;PMS7003;57634;51.136;17.024;2022-10-31T00:02:03;25;22;15
70243;PMS7003;57634;51.136;17.024;2022-10-31T00:05:04;20;19;13
70243;PMS7003;57634;51.136;17.024;2022-10-31T00:08:05;22;17;13
70243;PMS7003;57634;51.136;17.024;2022-10-31T00:11:09;21;18;12
70243;PMS7003;57634;51.136;17.024;2022-10-31T00:14:11;20;19;12
70243;PMS7003;57634;51.136;17.024;2022-10-31T00:17:12;17;16;12
70243;PMS7003;57634;51.136;17.024;2022-10-31T00:20:14;21;19;14
70243;PMS7003;57634;51.136;17.024;2022-10-31T00:23:16;23;22;15
70243;PMS7003;57634;51.136;17.024;2022-10-31T00:26:18;18;16;13
70243;PMS7003;57634;51.136;17.024;2022-10-31T00:29:20;20;17;13
70243;PMS7003;57634;51.136;17.024;2022-10-31T00:32:21;34;29;20
70243;PMS7003;57634;51.136;17.024;2022-10-31T00:35:23;24;22;15
70243;PMS7003;57634;51.136;17.024;2022-10-31T00:38:24;23;20;13
70243;PMS7003;57634;51.136;17.024;2022-10-31T00:41:25;20;18;13
70243;PMS7003;57634;51.136;17.024;2022-10-31T00:44:52;21;20;14
70243;PMS7003;57634;51.136;17.024;2022-10-31T00:47:53;19;19;13
70243;PMS7003;57634;51.136;17.024;2022-10-31T00:50:54;20;20;15
70243;PMS7003;57634;51.136;17.024;2022-10-31T00:53:55;22;21;15
70243;PMS7003;57634;51.136;17.024;2022-10-31T00:56:57;26;24;16
70243;PMS7003;57634;51.136;17.024;2022-10-31T00:59:58;27;24;17
70243;PMS7003;57634;51.136;17.024;2022-10-31T01:02:59;30;26;17
70243;PMS7003;57634;51.136;17.024;2022-10-31T01:06:02;27;24;16
70243;PMS7003;57634;51.136;17.024;2022-10-31T01:09:08;26;22;16
70243;PMS7003;57634;51.136;17.024;2022-10-31T01:12:09;27;24;17
70243;PMS7003;57634;51.136;17.024;2022-10-31T01:15:11;23;23;16
70243;PMS7003;57634;51.136;17.024;2022-10-31T01:18:13;24;22;16
70243;PMS7003;57634;51.136;17.024;2022-10-31T01:21:16;28;23;16
70243;PMS7003;57634;51.136;17.024;2022-10-31T01:24:47;31;26;17
70243;PMS7003;57634;51.136;17.024;2022-10-31T01:27:49;31;26;18
70243;PMS7003;57634;51.136;17.024;2022-10-31T01:30:50;25;24;16
70243;PMS7003;57634;51.136;17.024;2022-10-31T01:33:51;26;23;14
70243;PMS7003;57634;51.136;17.024;2022-10-31T01:36:53;27;23;16
70243;PMS7003;57634;51.136;17.024;2022-10-31T01:39:54;27;24;17
70243;PMS7003;57634;51.136;17.024;2022-10-31T01:42:55;28;24;15
70243;PMS7003;57634;51.136;17.024;2022-10-31T01:45:56;24;22;16
70243;PMS7003;57634;51.136;17.024;2022-10-31T01:48:57;29;25;16
70243;PMS7003;57634;51.136;17.024;2022-10-31T01:52:05;24;21;15
70243;PMS7003;57634;51.136;17.024;2022-10-31T01:58:47;27;23;16
70243;PMS7003;57634;51.136;17.024;2022-10-31T02:01:48;31;24;16
70243;PMS7003;57634;51.136;17.024;2022-10-31T02:04:52;28;25;17
70243;PMS7003;57634;51.136;17.024;2022-10-31T02:11:07;28;25;16
70243;PMS7003;57634;51.136;17.024;2022-10-31T02:14:09;29;25;16
70243;PMS7003;57634;51.136;17.024;2022-10-31T02:17:11;29;25;16
70243;PMS7003;57634;51.136;17.024;2022-10-31T02:20:14;29;25;17
70243;PMS7003;57634;51.136;17.024;2022-10-31T02:33:23;26;24;16
70243;PMS7003;57634;51.136;17.024;2022-10-31T02:40:04;27;23;16
70243;PMS7003;57634;51.136;17.024;2022-10-31T02:43:31;27;24;17
70243;PMS7003;57634;51.136;17.024;2022-10-31T02:46:43;26;22;16
70243;PMS7003;57634;51.136;17.024;2022-10-31T02:53:02;24;22;16
70243;PMS7003;57634;51.136;17.024;2022-10-31T02:56:05;24;22;15
70243;PMS7003;57634;51.136;17.024;2022-10-31T02:59:13;16;15;8
70243;PMS7003;57634;51.136;17.024;2022-10-31T03:12:24;23;21;13
70243;PMS7003;57634;51.136;17.024;2022-10-31T03:22:23;22;20;13
70243;PMS7003;57634;51.136;17.024;2022-10-31T03:25:29;22;21;14
70243;PMS7003;57634;51.136;17.024;2022-10-31T03:28:37;24;21;14
70243;PMS7003;57634;51.136;17.024;2022-10-31T03:32:18;25;20;14
70243;PMS7003;57634;51.136;17.024;2022-10-31T03:35:23;22;21;14
70243;PMS7003;57634;51.136;17.024;2022-10-31T03:38:27;25;22;15
70243;PMS7003;57634;51.136;17.024;2022-10-31T03:41:31;27;22;15
70243;PMS7003;57634;51.136;17.024;2022-10-31T03:44:36;24;22;15
70243;PMS7003;57634;51.136;17.024;2022-10-31T03:47:43;28;24;15
70243;PMS7003;57634;51.136;17.024;2022-10-31T03:54:30;24;21;14
70243;PMS7003;57634;51.136;17.024;2022-10-31T03:57:41;24;22;15
70243;PMS7003;57634;51.136;17.024;2022-10-31T04:00:51;24;22;15
70243;PMS7003;57634;51.136;17.024;2022-10-31T04:03:56;21;19;12
70243;PMS7003;57634;51.136;17.024;2022-10-31T04:06:59;18;16;10
70243;PMS7003;57634;51.136;17.024;2022-10-31T04:10:04;25;21;14
70243;PMS7003;57634;51.136;17.024;2022-10-31T04:13:36;26;24;16
70243;PMS7003;57634;51.136;17.024;2022-10-31T04:16:41;22;20;14
70243;PMS7003;57634;51.136;17.024;2022-10-31T04:19:44;19;17;12
70243;PMS7003;57634;51.136;17.024;2022-10-31T04:22:46;23;21;14
70243;PMS7003;57634;51.136;17.024;2022-10-31T04:25:47;22;20;14
70243;PMS7003;57634;51.136;17.024;2022-10-31T04:28:49;25;21;14
70243;PMS7003;57634;51.136;17.024;2022-10-31T04:31:50;21;21;14
70243;PMS7003;57634;51.136;17.024;2022-10-31T04:34:51;21;20;14
70243;PMS7003;57634;51.136;17.024;2022-10-31T04:37:52;24;20;14
70243;PMS7003;57634;51.136;17.024;2022-10-31T04:40:53;24;22;16
70243;PMS7003;57634;51.136;17.024;2022-10-31T04:43:55;16;14;10
70243;PMS7003;57634;51.136;17.024;2022-10-31T04:46:56;24;21;15
70243;PMS7003;57634;51.136;17.024;2022-10-31T04:49:57;23;22;15
70243;PMS7003;57634;51.136;17.024;2022-10-31T04:52:58;25;21;15
70243;PMS7003;57634;51.136;17.024;2022-10-31T04:56:25;19;18;13
70243;PMS7003;57634;51.136;17.024;2022-10-31T04:59:26;28;25;16
70243;PMS7003;57634;51.136;17.024;2022-10-31T05:02:27;26;23;15
70243;PMS7003;57634;51.136;17.024;2022-10-31T05:05:29;24;22;15
70243;PMS7003;57634;51.136;17.024;2022-10-31T05:08:32;29;24;16
70243;PMS7003;57634;51.136;17.024;2022-10-31T05:11:33;23;22;15
70243;PMS7003;57634;51.136;17.024;2022-10-31T05:14:34;25;21;15
70243;PMS7003;57634;51.136;17.024;2022-10-31T05:17:35;29;23;16
70243;PMS7003;57634;51.136;17.024;2022-10-31T05:20:36;22;21;15
70243;PMS7003;57634;51.136;17.024;2022-10-31T05:23:37;25;23;15
70243;PMS7003;57634;51.136;17.024;2022-10-31T05:26:39;24;21;15
70243;PMS7003;57634;51.136;17.024;2022-10-31T05:29:41;24;23;16
70243;PMS7003;57634;51.136;17.024;2022-10-31T05:32:43;21;20;14
70243;PMS7003;57634;51.136;17.024;2022-10-31T05:35:46;21;20;15
70243;PMS7003;57634;51.136;17.024;2022-10-31T05:39:14;22;20;14
70243;PMS7003;57634;51.136;17.024;2022-10-31T05:42:15;23;19;14
70243;PMS7003;57634;51.136;17.024;2022-10-31T05:45:16;27;22;15
70243;PMS7003;57634;51.136;17.024;2022-10-31T05:48:19;24;21;15
70243;PMS7003;57634;51.136;17.024;2022-10-31T05:51:20;21;20;13
70243;PMS7003;57634;51.136;17.024;2022-10-31T05:54:21;42;33;22
70243;PMS7003;57634;51.136;17.024;2022-10-31T05:57:22;49;40;28
70243;PMS7003;57634;51.136;17.024;2022-10-31T06:00:24;61;53;34
70243;PMS7003;57634;51.136;17.024;2022-10-31T06:03:26;42;35;23
70243;PMS7003;57634;51.136;17.024;2022-10-31T06:06:27;37;31;21
70243;PMS7003;57634;51.136;17.024;2022-10-31T06:09:28;27;24;15
70243;PMS7003;57634;51.136;17.024;2022-10-31T06:12:30;28;22;15
70243;PMS7003;57634;51.136;17.024;2022-10-31T06:15:31;24;21;14
70243;PMS7003;57634;51.136;17.024;2022-10-31T06:18:33;23;20;15
70243;PMS7003;57634;51.136;17.024;2022-10-31T06:21:34;27;23;16
70243;PMS7003;57634;51.136;17.024;2022-10-31T06:25:01;24;21;15
70243;PMS7003;57634;51.136;17.024;2022-10-31T06:28:03;19;17;12
70243;PMS7003;57634;51.136;17.024;2022-10-31T06:31:05;24;21;14
70243;PMS7003;57634;51.136;17.024;2022-10-31T06:34:06;19;19;13
70243;PMS7003;57634;51.136;17.024;2022-10-31T06:37:08;22;20;12
70243;PMS7003;57634;51.136;17.024;2022-10-31T06:40:10;20;20;14
70243;PMS7003;57634;51.136;17.024;2022-10-31T06:43:11;20;18;14
70243;PMS7003;57634;51.136;17.024;2022-10-31T06:46:15;19;18;14
70243;PMS7003;57634;51.136;17.024;2022-10-31T06:49:16;21;20;14
70243;PMS7003;57634;51.136;17.024;2022-10-31T06:52:17;25;23;16
70243;PMS7003;57634;51.136;17.024;2022-10-31T06:55:18;25;23;15
70243;PMS7003;57634;51.136;17.024;2022-10-31T06:58:23;27;24;16
70243;PMS7003;57634;51.136;17.024;2022-10-31T07:01:24;31;26;17
70243;PMS7003;57634;51.136;17.024;2022-10-31T07:04:52;29;25;18
70243;PMS7003;57634;51.136;17.024;2022-10-31T07:11:03;28;26;17
70243;PMS7003;57634;51.136;17.024;2022-10-31T07:14:04;28;26;18
70243;PMS7003;57634;51.136;17.024;2022-10-31T07:17:05;28;26;18
70243;PMS7003;57634;51.136;17.024;2022-10-31T07:20:06;25;24;15
70243;PMS7003;57634;51.136;17.024;2022-10-31T07:23:11;27;26;18
70243;PMS7003;57634;51.136;17.024;2022-10-31T07:26:13;28;25;18
70243;PMS7003;57634;51.136;17.024;2022-10-31T07:29:14;29;26;17
70243;PMS7003;57634;51.136;17.024;2022-10-31T07:32:16;30;26;18
70243;PMS7003;57634;51.136;17.024;2022-10-31T07:35:18;30;26;19
70243;PMS7003;57634;51.136;17.024;2022-10-31T07:38:50;26;23;16
70243;PMS7003;57634;51.136;17.024;2022-10-31T07:41:51;27;25;17
70243;PMS7003;57634;51.136;17.024;2022-10-31T07:44:52;31;27;18
70243;PMS7003;57634;51.136;17.024;2022-10-31T07:47:53;26;23;17
70243;PMS7003;57634;51.136;17.024;2022-10-31T07:50:55;27;24;16
70243;PMS7003;57634;51.136;17.024;2022-10-31T07:53:56;26;25;18
70243;PMS7003;57634;51.136;17.024;2022-10-31T07:56:57;25;24;17
70243;PMS7003;57634;51.136;17.024;2022-10-31T07:59:58;27;25;17
70243;PMS7003;57634;51.136;17.024;2022-10-31T08:03:00;27;23;16
70243;PMS7003;57634;51.136;17.024;2022-10-31T08:06:03;28;24;17
70243;PMS7003;57634;51.136;17.024;2022-10-31T08:09:07;24;22;16
70243;PMS7003;57634;51.136;17.024;2022-10-31T08:12:08;15;14;9
70243;PMS7003;57634;51.136;17.024;2022-10-31T08:15:09;19;18;13
70243;PMS7003;57634;51.136;17.024;2022-10-31T08:18:12;16;16;11
70243;PMS7003;57634;51.136;17.024;2022-10-31T08:21:39;17;16;11
70243;PMS7003;57634;51.136;17.024;2022-10-31T08:24:41;15;14;11
70243;PMS7003;57634;51.136;17.024;2022-10-31T08:27:42;9;9;3
70243;PMS7003;57634;51.136;17.024;2022-10-31T08:30:43;22;21;14
70243;PMS7003;57634;51.136;17.024;2022-10-31T08:33:48;20;18;13
70243;PMS7003;57634;51.136;17.024;2022-10-31T08:36:49;18;16;11
70243;PMS7003;57634;51.136;17.024;2022-10-31T08:39:54;19;17;12
70243;PMS7003;57634;51.136;17.024;2022-10-31T08:43:04;11;11;8
70243;PMS7003;57634;51.136;17.024;2022-10-31T08:46:09;13;11;8
70243;PMS7003;57634;51.136;17.024;2022-10-31T08:49:10;12;10;8
70243;PMS7003;57634;51.136;17.024;2022-10-31T08:52:39;11;11;8
70243;PMS7003;57634;51.136;17.024;2022-10-31T08:55:40;13;11;8
70243;PMS7003;57634;51.136;17.024;2022-10-31T08:58:42;11;11;8
70243;PMS7003;57634;51.136;17.024;2022-10-31T09:01:44;12;11;8
70243;PMS7003;57634;51.136;17.024;2022-10-31T09:04:45;12;10;8
70243;PMS7003;57634;51.136;17.024;2022-10-31T09:07:47;36;31;22
70243;PMS7003;57634;51.136;17.024;2022-10-31T09:10:48;18;17;13
70243;PMS7003;57634;51.136;17.024;2022-10-31T09:13:49;2;0;0
70243;PMS7003;57634;51.136;17.024;2022-10-31T09:16:53;10;9;7
70243;PMS7003;57634;51.136;17.024;2022-10-31T09:19:54;10;9;7
70243;PMS7003;57634;51.136;17.024;2022-10-31T09:22:56;11;10;8
70243;PMS7003;57634;51.136;17.024;2022-10-31T09:26:00;11;11;7
70243;PMS7003;57634;51.136;17.024;2022-10-31T09:29:03;9;9;6
70243;PMS7003;57634;51.136;17.024;2022-10-31T09:32:30;9;9;6
70243;PMS7003;57634;51.136;17.024;2022-10-31T09:35:32;8;7;5
70243;PMS7003;57634;51.136;17.024;2022-10-31T09:38:34;8;8;6
70243;PMS7003;57634;51.136;17.024;2022-10-31T09:48:09;6;6;3
70243;PMS7003;57634;51.136;17.024;2022-10-31T09:51:43;5;5;3
70243;PMS7003;57634;51.136;17.024;2022-10-31T09:58:01;7;5;3
70243;PMS7003;57634;51.136;17.024;2022-10-31T10:01:03;6;6;4
70243;PMS7003;57634;51.136;17.024;2022-10-31T10:07:26;5;4;3
70243;PMS7003;57634;51.136;17.024;2022-10-31T10:17:34;6;6;3
70243;PMS7003;57634;51.136;17.024;2022-10-31T10:30:47;5;5;3
70243;PMS7003;57634;51.136;17.024;2022-10-31T10:34:06;5;4;3
70243;PMS7003;57634;51.136;17.024;2022-10-31T10:37:41;6;6;4
70243;PMS7003;57634;51.136;17.024;2022-10-31T10:40:45;5;4;3
70243;PMS7003;57634;51.136;17.024;2022-10-31T10:43:51;7;6;5
70243;PMS7003;57634;51.136;17.024;2022-10-31T10:46:55;7;6;4
70243;PMS7003;57634;51.136;17.024;2022-10-31T10:53:58;5;5;3
70243;PMS7003;57634;51.136;17.024;2022-10-31T11:03:33;5;5;4
70243;PMS7003;57634;51.136;17.024;2022-10-31T11:06:36;4;4;3
70243;PMS7003;57634;51.136;17.024;2022-10-31T11:09:40;7;6;5
70243;PMS7003;57634;51.136;17.024;2022-10-31T11:13:19;4;4;3
70243;PMS7003;57634;51.136;17.024;2022-10-31T11:19:32;6;6;4
70243;PMS7003;57634;51.136;17.024;2022-10-31T11:22:34;6;6;4
70243;PMS7003;57634;51.136;17.024;2022-10-31T11:25:35;5;4;3
70243;PMS7003;57634;51.136;17.024;2022-10-31T11:28:37;6;5;4
70243;PMS7003;57634;51.136;17.024;2022-10-31T11:31:39;5;5;3
70243;PMS7003;57634;51.136;17.024;2022-10-31T11:34:46;6;5;4
70243;PMS7003;57634;51.136;17.024;2022-10-31T11:38:18;5;5;3
70243;PMS7003;57634;51.136;17.024;2022-10-31T11:44:31;6;5;3
70243;PMS7003;57634;51.136;17.024;2022-10-31T11:47:33;4;4;3
70243;PMS7003;57634;51.136;17.024;2022-10-31T11:50:39;4;4;3
70243;PMS7003;57634;51.136;17.024;2022-10-31T11:53:47;5;3;2
70243;PMS7003;57634;51.136;17.024;2022-10-31T11:56:52;6;6;4
70243;PMS7003;57634;51.136;17.024;2022-10-31T11:59:54;6;5;4
70243;PMS7003;57634;51.136;17.024;2022-10-31T12:03:27;7;7;5
70243;PMS7003;57634;51.136;17.024;2022-10-31T12:06:37;7;6;3
70243;PMS7003;57634;51.136;17.024;2022-10-31T12:09:39;4;4;3
70243;PMS7003;57634;51.136;17.024;2022-10-31T12:12:56;4;4;2
70243;PMS7003;57634;51.136;17.024;2022-10-31T12:16:12;5;5;3
70243;PMS7003;57634;51.136;17.024;2022-10-31T12:23:09;6;5;3
70243;PMS7003;57634;51.136;17.024;2022-10-31T12:39:44;5;5;4
70243;PMS7003;57634;51.136;17.024;2022-10-31T13:00:04;5;4;3
70243;PMS7003;57634;51.136;17.024;2022-10-31T13:03:17;5;4;3
70243;PMS7003;57634;51.136;17.024;2022-10-31T13:06:22;6;5;4
70243;PMS7003;57634;51.136;17.024;2022-10-31T13:12:43;8;5;3
70243;PMS7003;57634;51.136;17.024;2022-10-31T13:16:17;4;4;3
70243;PMS7003;57634;51.136;17.024;2022-10-31T13:19:26;9;8;5
70243;PMS7003;57634;51.136;17.024;2022-10-31T13:22:31;7;7;4
70243;PMS7003;57634;51.136;17.024;2022-10-31T13:25:40;5;5;3
70243;PMS7003;57634;51.136;17.024;2022-10-31T13:29:33;6;4;3
70243;PMS7003;57634;51.136;17.024;2022-10-31T13:32:28;5;5;3
70243;PMS7003;57634;51.136;17.024;2022-10-31T13:38:51;4;4;3
70243;PMS7003;57634;51.136;17.024;2022-10-31T13:42:03;6;6;3
70243;PMS7003;57634;51.136;17.024;2022-10-31T13:45:12;5;4;2
70243;PMS7003;57634;51.136;17.024;2022-10-31T13:48:44;5;5;3
70243;PMS7003;57634;51.136;17.024;2022-10-31T13:51:48;5;4;3
70243;PMS7003;57634;51.136;17.024;2022-10-31T13:54:50;5;4;3
70243;PMS7003;57634;51.136;17.024;2022-10-31T13:57:56;4;4;3
70243;PMS7003;57634;51.136;17.024;2022-10-31T14:01:19;5;4;3
70243;PMS7003;57634;51.136;17.024;2022-10-31T14:07:22;5;5;3
70243;PMS7003;57634;51.136;17.024;2022-10-31T14:10:53;4;4;3
70243;PMS7003;57634;51.136;17.024;2022-10-31T14:13:55;4;4;3
70243;PMS7003;57634;51.136;17.024;2022-10-31T14:16:59;4;4;3
70243;PMS7003;57634;51.136;17.024;2022-10-31T14:26:31;4;4;3
70243;PMS7003;57634;51.136;17.024;2022-10-31T14:29:34;6;6;3
70243;PMS7003;57634;51.136;17.024;2022-10-31T14:33:02;4;4;3
70243;PMS7003;57634;51.136;17.024;2022-10-31T14:36:23;5;4;3
70243;PMS7003;57634;51.136;17.024;2022-10-31T14:49:48;5;5;3
70243;PMS7003;57634;51.136;17.024;2022-10-31T14:52:56;5;5;3
70243;PMS7003;57634;51.136;17.024;2022-10-31T14:56:00;6;5;4
70243;PMS7003;57634;51.136;17.024;2022-10-31T14:59:11;9;8;6
70243;PMS7003;57634;51.136;17.024;2022-10-31T15:02:45;12;11;8
70243;PMS7003;57634;51.136;17.024;2022-10-31T15:05:55;7;6;5
70243;PMS7003;57634;51.136;17.024;2022-10-31T15:09:00;7;7;5
70243;PMS7003;57634;51.136;17.024;2022-10-31T15:12:47;6;5;4
70243;PMS7003;57634;51.136;17.024;2022-10-31T15:15:17;8;6;4
70243;PMS7003;57634;51.136;17.024;2022-10-31T15:18:56;7;7;5
70243;PMS7003;57634;51.136;17.024;2022-10-31T15:22:04;64;51;31
70243;PMS7003;57634;51.136;17.024;2022-10-31T15:25:12;42;35;23
70243;PMS7003;57634;51.136;17.024;2022-10-31T15:28:22;9;7;1
70243;PMS7003;57634;51.136;17.024;2022-10-31T15:31:25;20;19;12
70243;PMS7003;57634;51.136;17.024;2022-10-31T15:38:06;15;12;9
70243;PMS7003;57634;51.136;17.024;2022-10-31T15:44:24;15;12;9
70243;PMS7003;57634;51.136;17.024;2022-10-31T15:47:29;12;12;9
70243;PMS7003;57634;51.136;17.024;2022-10-31T15:50:39;11;10;7
70243;PMS7003;57634;51.136;17.024;2022-10-31T15:53:49;12;12;9
70243;PMS7003;57634;51.136;17.024;2022-10-31T15:57:19;12;12;9
70243;PMS7003;57634;51.136;17.024;2022-10-31T16:03:35;12;11;8
70243;PMS7003;57634;51.136;17.024;2022-10-31T16:06:36;12;11;8
70243;PMS7003;57634;51.136;17.024;2022-10-31T16:09:37;17;16;11
70243;PMS7003;57634;51.136;17.024;2022-10-31T16:12:49;19;18;13
70243;PMS7003;57634;51.136;17.024;2022-10-31T16:15:55;21;19;13
70243;PMS7003;57634;51.136;17.024;2022-10-31T16:19:31;23;20;15
70243;PMS7003;57634;51.136;17.024;2022-10-31T16:22:36;19;17;13
70243;PMS7003;57634;51.136;17.024;2022-10-31T16:25:40;20;19;13
70243;PMS7003;57634;51.136;17.024;2022-10-31T16:28:49;15;14;11
70243;PMS7003;57634;51.136;17.024;2022-10-31T16:31:53;19;17;11
70243;PMS7003;57634;51.136;17.024;2022-10-31T16:35:38;15;13;9
70243;PMS7003;57634;51.136;17.024;2022-10-31T16:38:41;22;20;13
70243;PMS7003;57634;51.136;17.024;2022-10-31T16:41:46;30;26;17
70243;PMS7003;57634;51.136;17.024;2022-10-31T16:44:51;51;40;26
70243;PMS7003;57634;51.136;17.024;2022-10-31T16:47:52;50;40;26
70243;PMS7003;57634;51.136;17.024;2022-10-31T16:50:54;33;28;18
70243;PMS7003;57634;51.136;17.024;2022-10-31T16:53:55;22;22;15
70243;PMS7003;57634;51.136;17.024;2022-10-31T16:56:57;19;16;11
70243;PMS7003;57634;51.136;17.024;2022-10-31T17:00:00;19;17;12
70243;PMS7003;57634;51.136;17.024;2022-10-31T17:03:01;19;17;12
70243;PMS7003;57634;51.136;17.024;2022-10-31T17:06:04;17;17;13
70243;PMS7003;57634;51.136;17.024;2022-10-31T17:09:05;17;16;12
70243;PMS7003;57634;51.136;17.024;2022-10-31T17:12:09;41;34;22
70243;PMS7003;57634;51.136;17.024;2022-10-31T17:15:48;16;15;11
70243;PMS7003;57634;51.136;17.024;2022-10-31T17:18:51;14;13;10
70243;PMS7003;57634;51.136;17.024;2022-10-31T17:21:52;13;13;9
70243;PMS7003;57634;51.136;17.024;2022-10-31T17:24:54;14;14;10
70243;PMS7003;57634;51.136;17.024;2022-10-31T17:27:55;15;14;10
70243;PMS7003;57634;51.136;17.024;2022-10-31T17:30:57;16;14;10
70243;PMS7003;57634;51.136;17.024;2022-10-31T17:33:59;20;18;13
70243;PMS7003;57634;51.136;17.024;2022-10-31T17:37:00;21;19;15
70243;PMS7003;57634;51.136;17.024;2022-10-31T17:40:02;23;22;14
70243;PMS7003;57634;51.136;17.024;2022-10-31T17:43:03;22;22;15
70243;PMS7003;57634;51.136;17.024;2022-10-31T17:46:05;25;23;17
70243;PMS7003;57634;51.136;17.024;2022-10-31T17:49:09;25;22;15
70243;PMS7003;57634;51.136;17.024;2022-10-31T17:52:37;24;22;15
70243;PMS7003;57634;51.136;17.024;2022-10-31T17:55:38;23;20;15
70243;PMS7003;57634;51.136;17.024;2022-10-31T17:58:40;24;20;14
70243;PMS7003;57634;51.136;17.024;2022-10-31T18:01:41;26;22;15
70243;PMS7003;57634;51.136;17.024;2022-10-31T18:04:42;24;21;14
70243;PMS7003;57634;51.136;17.024;2022-10-31T18:07:44;19;19;12
70243;PMS7003;57634;51.136;17.024;2022-10-31T18:10:46;23;21;14
70243;PMS7003;57634;51.136;17.024;2022-10-31T18:13:47;23;21;14
70243;PMS7003;57634;51.136;17.024;2022-10-31T18:16:53;25;21;14
70243;PMS7003;57634;51.136;17.024;2022-10-31T18:19:54;22;21;14
70243;PMS7003;57634;51.136;17.024;2022-10-31T18:22:55;22;20;14
70243;PMS7003;57634;51.136;17.024;2022-10-31T18:25:57;22;19;13
70243;PMS7003;57634;51.136;17.024;2022-10-31T18:28:58;24;21;15
70243;PMS7003;57634;51.136;17.024;2022-10-31T18:32:00;27;23;14
70243;PMS7003;57634;51.136;17.024;2022-10-31T18:35:27;23;21;14
70243;PMS7003;57634;51.136;17.024;2022-10-31T18:38:28;26;24;16
70243;PMS7003;57634;51.136;17.024;2022-10-31T18:41:29;22;21;14
70243;PMS7003;57634;51.136;17.024;2022-10-31T18:44:31;23;21;15
70243;PMS7003;57634;51.136;17.024;2022-10-31T18:47:32;25;22;14
70243;PMS7003;57634;51.136;17.024;2022-10-31T18:50:37;25;22;14
70243;PMS7003;57634;51.136;17.024;2022-10-31T18:53:39;25;23;15
70243;PMS7003;57634;51.136;17.024;2022-10-31T18:56:41;25;22;15
70243;PMS7003;57634;51.136;17.024;2022-10-31T18:59:42;28;23;15
70243;PMS7003;57634;51.136;17.024;2022-10-31T19:02:43;26;22;16
70243;PMS7003;57634;51.136;17.024;2022-10-31T19:05:44;28;24;17
70243;PMS7003;57634;51.136;17.024;2022-10-31T19:08:45;29;25;17
70243;PMS7003;57634;51.136;17.024;2022-10-31T19:11:46;32;26;17
70243;PMS7003;57634;51.136;17.024;2022-10-31T19:14:48;33;28;19
70243;PMS7003;57634;51.136;17.024;2022-10-31T19:18:17;35;28;19
70243;PMS7003;57634;51.136;17.024;2022-10-31T19:21:19;25;22;13
70243;PMS7003;57634;51.136;17.024;2022-10-31T19:24:20;24;19;12
70243;PMS7003;57634;51.136;17.024;2022-10-31T19:27:21;32;28;19
70243;PMS7003;57634;51.136;17.024;2022-10-31T19:30:27;41;34;21
70243;PMS7003;57634;51.136;17.024;2022-10-31T19:33:28;33;28;18
70243;PMS7003;57634;51.136;17.024;2022-10-31T19:36:30;35;29;20
70243;PMS7003;57634;51.136;17.024;2022-10-31T19:39:31;31;25;17
70243;PMS7003;57634;51.136;17.024;2022-10-31T19:42:32;31;27;17
70243;PMS7003;57634;51.136;17.024;2022-10-31T19:45:34;31;26;18
70243;PMS7003;57634;51.136;17.024;2022-10-31T19:48:35;31;25;17
70243;PMS7003;57634;51.136;17.024;2022-10-31T19:51:37;39;31;20
70243;PMS7003;57634;51.136;17.024;2022-10-31T19:54:38;43;34;21
70243;PMS7003;57634;51.136;17.024;2022-10-31T19:57:40;43;34;23
70243;PMS7003;57634;51.136;17.024;2022-10-31T20:01:14;37;31;20
70243;PMS7003;57634;51.136;17.024;2022-10-31T20:04:18;28;23;14
70243;PMS7003;57634;51.136;17.024;2022-10-31T20:07:19;37;31;21
70243;PMS7003;57634;51.136;17.024;2022-10-31T20:10:21;34;28;19
70243;PMS7003;57634;51.136;17.024;2022-10-31T20:13:22;38;31;20
70243;PMS7003;57634;51.136;17.024;2022-10-31T20:16:24;38;29;21
70243;PMS7003;57634;51.136;17.024;2022-10-31T20:19:27;36;30;20
70243;PMS7003;57634;51.136;17.024;2022-10-31T20:22:29;38;31;20
70243;PMS7003;57634;51.136;17.024;2022-10-31T20:25:30;36;31;20
70243;PMS7003;57634;51.136;17.024;2022-10-31T20:28:33;38;32;21
70243;PMS7003;57634;51.136;17.024;2022-10-31T20:31:35;36;30;20
70243;PMS7003;57634;51.136;17.024;2022-10-31T20:34:37;38;31;20
70243;PMS7003;57634;51.136;17.024;2022-10-31T20:38:05;37;31;20
70243;PMS7003;57634;51.136;17.024;2022-10-31T20:41:08;35;28;19
70243;PMS7003;57634;51.136;17.024;2022-10-31T20:44:10;36;31;20
70243;PMS7003;57634;51.136;17.024;2022-10-31T20:47:12;31;26;17
70243;PMS7003;57634;51.136;17.024;2022-10-31T20:50:13;33;28;18
70243;PMS7003;57634;51.136;17.024;2022-10-31T20:53:15;37;30;19
70243;PMS7003;57634;51.136;17.024;2022-10-31T20:56:17;33;28;19
70243;PMS7003;57634;51.136;17.024;2022-10-31T20:59:20;32;28;17
70243;PMS7003;57634;51.136;17.024;2022-10-31T21:02:21;36;29;19
70243;PMS7003;57634;51.136;17.024;2022-10-31T21:05:22;32;27;18
70243;PMS7003;57634;51.136;17.024;2022-10-31T21:08:24;31;26;18
70243;PMS7003;57634;51.136;17.024;2022-10-31T21:11:28;29;25;18
70243;PMS7003;57634;51.136;17.024;2022-10-31T21:14:29;31;26;17
70243;PMS7003;57634;51.136;17.024;2022-10-31T21:17:57;29;25;16
70243;PMS7003;57634;51.136;17.024;2022-10-31T21:20:59;29;23;16
70243;PMS7003;57634;51.136;17.024;2022-10-31T21:24:04;30;26;17
70243;PMS7003;57634;51.136;17.024;2022-10-31T21:27:11;28;23;15
70243;PMS7003;57634;51.136;17.024;2022-10-31T21:30:12;29;24;16
70243;PMS7003;57634;51.136;17.024;2022-10-31T21:33:15;24;22;14
70243;PMS7003;57634;51.136;17.024;2022-10-31T21:36:17;32;26;18
70243;PMS7003;57634;51.136;17.024;2022-10-31T21:39:18;29;24;17
70243;PMS7003;57634;51.136;17.024;2022-10-31T21:42:20;30;25;16
70243;PMS7003;57634;51.136;17.024;2022-10-31T21:45:22;33;27;18
70243;PMS7003;57634;51.136;17.024;2022-10-31T21:48:25;29;24;14
70243;PMS7003;57634;51.136;17.024;2022-10-31T21:51:55;32;27;18
70243;PMS7003;57634;51.136;17.024;2022-10-31T21:54:57;32;25;17
70243;PMS7003;57634;51.136;17.024;2022-10-31T21:57:58;28;25;17
70243;PMS7003;57634;51.136;17.024;2022-10-31T22:00:59;32;27;18
70243;PMS7003;57634;51.136;17.024;2022-10-31T22:04:01;33;26;17
70243;PMS7003;57634;51.136;17.024;2022-10-31T22:07:03;30;25;17
70243;PMS7003;57634;51.136;17.024;2022-10-31T22:10:04;30;26;18
70243;PMS7003;57634;51.136;17.024;2022-10-31T22:13:06;30;26;18
70243;PMS7003;57634;51.136;17.024;2022-10-31T22:16:10;29;24;17
70243;PMS7003;57634;51.136;17.024;2022-10-31T22:19:13;32;27;17
70243;PMS7003;57634;51.136;17.024;2022-10-31T22:22:15;31;26;18
70243;PMS7003;57634;51.136;17.024;2022-10-31T22:25:16;31;26;17
70243;PMS7003;57634;51.136;17.024;2022-10-31T22:28:18;29;23;16
70243;PMS7003;57634;51.136;17.024;2022-10-31T22:31:19;30;26;17
70243;PMS7003;57634;51.136;17.024;2022-10-31T22:34:48;34;27;17